createdAt,value
2018-09-30T08:14:08.253Z,37
2018-09-30T08:17:08.150Z,35
2018-09-30T08:20:08.162Z,33
2018-09-30T08:23:08.142Z,31
2018-09-30T08:26:08.291Z,29
2018-09-30T08:29:08.179Z,28
2018-09-30T08:32:08.276Z,26
2018-09-30T08:35:08.210Z,25
2018-09-30T08:38:08.317Z,24
2018-09-30T08:41:08.339Z,22
2018-09-30T08:44:08.306Z,25
2018-09-30T08:47:08.375Z,23
2018-09-30T08:50:08.260Z,23
2018-09-30T08:53:08.280Z,21
2018-09-30T08:56:08.352Z,22
2018-09-30T08:59:08.330Z,22
2018-09-30T09:02:08.340Z,21
2018-09-30T09:05:08.333Z,21
2018-09-30T09:08:08.811Z,23
2018-09-30T09:11:08.353Z,21
2018-09-30T09:14:08.405Z,19
2018-09-30T09:17:08.405Z,18
2018-09-30T09:20:08.442Z,19
2018-09-30T09:23:08.453Z,19
2018-09-30T09:26:08.464Z,19
2018-09-30T09:29:08.511Z,18
2018-09-30T09:32:08.510Z,19
2018-09-30T09:35:08.649Z,17
2018-09-30T09:38:08.610Z,18
2018-09-30T09:41:08.569Z,17
2018-09-30T09:44:08.603Z,20
2018-09-30T09:47:08.726Z,17
2018-09-30T09:50:09.052Z,17
2018-09-30T09:53:08.639Z,17
2018-09-30T09:56:08.671Z,17
2018-09-30T09:59:08.924Z,16
2018-09-30T10:02:09.139Z,16
2018-09-30T10:05:08.820Z,16
2018-09-30T10:08:08.892Z,17
2018-09-30T10:11:08.913Z,17
2018-09-30T10:14:08.819Z,17
2018-09-30T10:17:08.851Z,17
2018-09-30T10:20:08.852Z,16
2018-09-30T10:23:08.890Z,16
2018-09-30T10:26:08.899Z,15
2018-09-30T10:29:08.938Z,16
2018-09-30T10:32:08.948Z,17
2018-09-30T10:35:09.391Z,15
2018-09-30T10:38:09.005Z,15
2018-09-30T10:41:09.252Z,16
2018-09-30T10:44:09.076Z,15
2018-09-30T10:47:09.190Z,16
2018-09-30T10:50:09.111Z,14
2018-09-30T10:53:09.115Z,15
2018-09-30T10:56:09.156Z,15
2018-09-30T10:59:09.468Z,14
2018-09-30T11:02:09.307Z,16
2018-09-30T11:05:09.220Z,16
2018-09-30T11:08:09.227Z,15
2018-09-30T11:11:09.268Z,16
2018-09-30T11:14:09.425Z,17
2018-09-30T11:17:09.323Z,17
2018-09-30T11:20:09.346Z,15
2018-09-30T11:23:09.381Z,14
2018-09-30T11:26:09.510Z,15
2018-09-30T11:29:09.434Z,15
2018-09-30T11:32:09.468Z,16
2018-09-30T11:35:09.495Z,16
2018-09-30T11:38:09.522Z,16
2018-09-30T11:41:09.530Z,16
2018-09-30T11:44:09.583Z,16
2018-09-30T11:47:09.597Z,15
2018-09-30T11:50:09.618Z,15
2018-09-30T11:53:09.765Z,17
2018-09-30T11:56:09.678Z,16
2018-09-30T11:59:09.728Z,15
2018-09-30T12:02:09.765Z,15
2018-09-30T12:05:09.763Z,17
2018-09-30T12:08:09.773Z,15
2018-09-30T12:11:10.254Z,15
2018-09-30T12:14:09.853Z,15
2018-09-30T12:17:09.870Z,14
2018-09-30T12:20:09.925Z,14
2018-09-30T12:23:09.951Z,14
2018-09-30T12:26:10.081Z,14
2018-09-30T12:29:10.119Z,14
2018-09-30T12:32:10.033Z,14
2018-09-30T12:35:10.088Z,14
2018-09-30T12:38:10.081Z,18
2018-09-30T12:41:10.125Z,14
2018-09-30T12:44:10.188Z,17
2018-09-30T12:47:10.558Z,15
2018-09-30T12:50:10.209Z,16
2018-09-30T12:53:10.227Z,17
2018-09-30T12:56:10.278Z,15
2018-09-30T12:59:10.315Z,14
2018-09-30T13:02:10.315Z,16
2018-09-30T13:05:10.777Z,17
2018-09-30T13:08:10.387Z,16
2018-09-30T13:11:10.415Z,15
2018-09-30T13:14:10.449Z,15
2018-09-30T13:17:10.458Z,16
2018-09-30T13:20:10.487Z,15
2018-09-30T13:23:10.530Z,15
2018-09-30T13:26:10.550Z,16
2018-09-30T13:29:10.606Z,19
2018-09-30T13:32:10.619Z,17
2018-09-30T13:35:10.662Z,17
2018-09-30T13:38:10.656Z,19
2018-09-30T13:41:10.912Z,17
2018-09-30T13:44:10.848Z,18
2018-09-30T13:47:10.772Z,18
2018-09-30T13:50:10.770Z,20
2018-09-30T13:53:11.247Z,18
2018-09-30T13:56:10.846Z,18
2018-09-30T13:59:10.876Z,18
2018-09-30T14:02:10.901Z,17
2018-09-30T14:05:10.912Z,17
2018-09-30T14:08:11.031Z,19
2018-09-30T14:11:11.083Z,20
2018-09-30T14:14:10.996Z,19
2018-09-30T14:17:11.024Z,21
2018-09-30T14:20:11.053Z,20
2018-09-30T14:23:11.073Z,19
2018-09-30T14:26:11.103Z,21
2018-09-30T14:29:11.127Z,19
2018-09-30T14:32:11.248Z,20
2018-09-30T14:35:11.176Z,21
2018-09-30T14:38:11.190Z,21
2018-09-30T14:41:11.313Z,22
2018-09-30T14:44:11.239Z,22
2018-09-30T14:47:11.264Z,27
2018-09-30T14:50:11.273Z,30
2018-09-30T14:53:11.393Z,33
2018-09-30T14:56:11.391Z,34
2018-09-30T14:59:11.318Z,35
2018-09-30T15:05:11.346Z,39
2018-09-30T15:08:11.342Z,40
2018-09-30T15:11:11.462Z,41
2018-09-30T15:14:11.389Z,41
2018-09-30T15:17:11.474Z,42
2018-09-30T15:20:11.364Z,43
2018-09-30T15:23:11.393Z,43
2018-09-30T15:26:11.392Z,43
2018-09-30T15:29:11.371Z,44
2018-09-30T15:41:11.411Z,45
2018-09-30T15:59:11.577Z,47
2018-09-30T16:02:11.440Z,48
2018-09-30T16:05:11.535Z,48
2018-09-30T16:08:11.544Z,48
2018-09-30T16:11:11.462Z,48
2018-09-30T16:14:11.476Z,49
2018-09-30T16:17:11.477Z,49
2018-09-30T16:20:11.476Z,49
2018-09-30T16:44:11.511Z,55
2018-09-30T16:47:11.599Z,56
2018-09-30T16:50:11.516Z,57
2018-09-30T16:53:11.635Z,58
2018-09-30T16:56:11.498Z,59
2018-09-30T16:59:11.951Z,60
2018-09-30T17:02:11.504Z,60
2018-09-30T17:05:11.511Z,62
2018-09-30T17:08:11.486Z,63
2018-09-30T17:11:11.519Z,64
2018-09-30T17:14:11.523Z,63
2018-09-30T17:17:11.513Z,64
2018-09-30T17:20:11.610Z,64
2018-09-30T17:23:11.504Z,65
2018-09-30T17:26:11.498Z,65
2018-09-30T17:29:11.619Z,66
2018-09-30T17:32:11.605Z,66
2018-09-30T17:35:11.502Z,67
2018-09-30T17:38:11.506Z,67
2018-09-30T17:41:11.493Z,68
2018-09-30T17:44:11.502Z,68
2018-09-30T17:47:11.485Z,69
2018-09-30T17:50:11.488Z,69
2018-09-30T17:53:11.477Z,70
2018-09-30T17:56:11.590Z,70
2018-09-30T17:59:11.489Z,71
